sensor_id;sensor_type;location;lat;lon;timestamp;pressure;altitude;pressure_sealevel;temperature;humidity
59608;BME280;45426;44.726;10.390;2023-09-19T07:59:22;100365.13;;;36.38;100.00
59608;BME280;45426;44.726;10.390;2023-09-19T08:01:47;100369.84;;;32.40;100.00
59608;BME280;45426;44.726;10.390;2023-09-19T08:04:13;100362.19;;;32.71;100.00
59608;BME280;45426;44.726;10.390;2023-09-19T08:06:39;100359.53;;;32.82;100.00
59608;BME280;45426;44.726;10.390;2023-09-19T08:09:04;100355.41;;;31.64;100.00
59608;BME280;45426;44.726;10.390;2023-09-19T08:11:33;100357.38;;;31.00;100.00
59608;BME280;45426;44.726;10.390;2023-09-19T08:13:59;100357.66;;;35.29;100.00
59608;BME280;45426;44.726;10.390;2023-09-19T08:16:25;100361.41;;;37.10;100.00
59608;BME280;45426;44.726;10.390;2023-09-19T08:18:51;100355.50;;;39.81;100.00
59608;BME280;45426;44.726;10.390;2023-09-19T08:21:21;100372.78;;;33.11;100.00
59608;BME280;45426;44.726;10.390;2023-09-19T08:23:47;100364.00;;;31.99;100.00
59608;BME280;45426;44.726;10.390;2023-09-19T08:26:12;100364.09;;;30.60;100.00
59608;BME280;45426;44.726;10.390;2023-09-19T08:28:38;100361.44;;;30.99;100.00
59608;BME280;45426;44.726;10.390;2023-09-19T08:31:06;100358.56;;;30.23;100.00
59608;BME280;45426;44.726;10.390;2023-09-19T08:33:33;100362.56;;;30.31;100.00
59608;BME280;45426;44.726;10.390;2023-09-19T08:35:59;100370.56;;;29.00;100.00
59608;BME280;45426;44.726;10.390;2023-09-19T08:38:24;100359.84;;;30.65;100.00
59608;BME280;45426;44.726;10.390;2023-09-19T08:40:57;100366.75;;;28.75;100.00
59608;BME280;45426;44.726;10.390;2023-09-19T08:43:23;100368.97;;;28.90;100.00
59608;BME280;45426;44.726;10.390;2023-09-19T08:45:49;100354.28;;;29.76;100.00
59608;BME280;45426;44.726;10.390;2023-09-19T08:48:27;100356.09;;;29.60;100.00
59608;BME280;45426;44.726;10.390;2023-09-19T08:51:00;100346.47;;;30.08;100.00
59608;BME280;45426;44.726;10.390;2023-09-19T08:56:17;100358.59;;;29.86;100.00
59608;BME280;45426;44.726;10.390;2023-09-19T08:58:56;100368.06;;;28.93;100.00
59608;BME280;45426;44.726;10.390;2023-09-19T09:01:23;100366.63;;;29.38;100.00
59608;BME280;45426;44.726;10.390;2023-09-19T09:03:53;100358.00;;;29.82;100.00
59608;BME280;45426;44.726;10.390;2023-09-19T09:06:20;100362.31;;;30.11;100.00
59608;BME280;45426;44.726;10.390;2023-09-19T09:08:46;100367.91;;;29.37;100.00
59608;BME280;45426;44.726;10.390;2023-09-19T09:11:13;100366.25;;;29.76;100.00
59608;BME280;45426;44.726;10.390;2023-09-19T09:13:39;100365.78;;;29.87;100.00
59608;BME280;45426;44.726;10.390;2023-09-19T09:16:07;100382.88;;;30.17;100.00
59608;BME280;45426;44.726;10.390;2023-09-19T09:18:34;100368.66;;;30.91;100.00
59608;BME280;45426;44.726;10.390;2023-09-19T09:20:59;100373.06;;;30.03;100.00
59608;BME280;45426;44.726;10.390;2023-09-19T09:23:26;100374.13;;;29.50;100.00
59608;BME280;45426;44.726;10.390;2023-09-19T09:25:55;100366.66;;;30.40;100.00
59608;BME280;45426;44.726;10.390;2023-09-19T09:28:29;100362.91;;;30.15;100.00
59608;BME280;45426;44.726;10.390;2023-09-19T09:30:56;100362.00;;;30.79;100.00
59608;BME280;45426;44.726;10.390;2023-09-19T09:33:24;100364.75;;;30.46;100.00
59608;BME280;45426;44.726;10.390;2023-09-19T09:36:00;100368.50;;;30.24;100.00
59608;BME280;45426;44.726;10.390;2023-09-19T09:38:49;100356.31;;;30.55;100.00
59608;BME280;45426;44.726;10.390;2023-09-19T09:41:15;100354.72;;;30.63;100.00
59608;BME280;45426;44.726;10.390;2023-09-19T09:43:53;100359.34;;;30.75;100.00
59608;BME280;45426;44.726;10.390;2023-09-19T09:46:21;100359.16;;;30.27;100.00
59608;BME280;45426;44.726;10.390;2023-09-19T09:49:07;100363.03;;;30.48;100.00
59608;BME280;45426;44.726;10.390;2023-09-19T09:52:04;100364.97;;;30.05;100.00
59608;BME280;45426;44.726;10.390;2023-09-19T09:54:33;100363.47;;;30.56;100.00
59608;BME280;45426;44.726;10.390;2023-09-19T09:57:03;100360.38;;;30.45;100.00
59608;BME280;45426;44.726;10.390;2023-09-19T09:59:48;100365.09;;;30.38;100.00
59608;BME280;45426;44.726;10.390;2023-09-19T10:02:28;100356.69;;;30.81;100.00
59608;BME280;45426;44.726;10.390;2023-09-19T10:04:57;100358.03;;;30.86;100.00
59608;BME280;45426;44.726;10.390;2023-09-19T10:07:41;100353.81;;;30.57;100.00
59608;BME280;45426;44.726;10.390;2023-09-19T10:10:14;100354.88;;;30.60;100.00
59608;BME280;45426;44.726;10.390;2023-09-19T10:12:51;100354.81;;;30.35;100.00
59608;BME280;45426;44.726;10.390;2023-09-19T10:15:23;100360.19;;;29.87;100.00
59608;BME280;45426;44.726;10.390;2023-09-19T10:17:52;100360.84;;;30.86;100.00
59608;BME280;45426;44.726;10.390;2023-09-19T10:20:24;100360.50;;;31.02;100.00
59608;BME280;45426;44.726;10.390;2023-09-19T10:23:10;100359.31;;;30.42;100.00
59608;BME280;45426;44.726;10.390;2023-09-19T10:25:40;100361.59;;;30.62;100.00
59608;BME280;45426;44.726;10.390;2023-09-19T10:28:07;100366.16;;;30.84;100.00
59608;BME280;45426;44.726;10.390;2023-09-19T10:30:43;100361.88;;;31.07;100.00
59608;BME280;45426;44.726;10.390;2023-09-19T10:33:11;100363.81;;;30.91;100.00
59608;BME280;45426;44.726;10.390;2023-09-19T10:35:45;100364.47;;;30.25;100.00
59608;BME280;45426;44.726;10.390;2023-09-19T10:38:13;100353.53;;;30.46;100.00
59608;BME280;45426;44.726;10.390;2023-09-19T10:40:39;100355.69;;;30.60;100.00
59608;BME280;45426;44.726;10.390;2023-09-19T10:43:15;100351.13;;;31.05;100.00
59608;BME280;45426;44.726;10.390;2023-09-19T10:45:45;100353.47;;;30.64;100.00
59608;BME280;45426;44.726;10.390;2023-09-19T10:48:16;100354.88;;;31.02;100.00
59608;BME280;45426;44.726;10.390;2023-09-19T10:51:01;100347.53;;;31.29;100.00
59608;BME280;45426;44.726;10.390;2023-09-19T10:53:41;100338.22;;;31.23;100.00
59608;BME280;45426;44.726;10.390;2023-09-19T10:56:09;100342.53;;;31.09;100.00
59608;BME280;45426;44.726;10.390;2023-09-19T10:58:43;100340.63;;;30.82;100.00
59608;BME280;45426;44.726;10.390;2023-09-19T11:01:11;100334.13;;;31.09;100.00
59608;BME280;45426;44.726;10.390;2023-09-19T11:03:41;100326.25;;;31.22;100.00
59608;BME280;45426;44.726;10.390;2023-09-19T11:06:17;100339.06;;;31.38;100.00
59608;BME280;45426;44.726;10.390;2023-09-19T11:09:03;100336.00;;;31.27;100.00
59608;BME280;45426;44.726;10.390;2023-09-19T11:11:45;100323.84;;;31.30;100.00
59608;BME280;45426;44.726;10.390;2023-09-19T11:30:50;100324.59;;;30.73;100.00
59608;BME280;45426;44.726;10.390;2023-09-19T11:33:22;100324.19;;;30.65;100.00
59608;BME280;45426;44.726;10.390;2023-09-19T11:36:19;100323.38;;;31.56;100.00
59608;BME280;45426;44.726;10.390;2023-09-19T11:46:30;100312.72;;;31.60;100.00
59608;BME280;45426;44.726;10.390;2023-09-19T11:49:05;100317.97;;;31.67;100.00
59608;BME280;45426;44.726;10.390;2023-09-19T11:51:41;100310.34;;;31.82;100.00
59608;BME280;45426;44.726;10.390;2023-09-19T11:54:12;100309.44;;;31.37;100.00
59608;BME280;45426;44.726;10.390;2023-09-19T11:56:44;100318.56;;;32.01;100.00
59608;BME280;45426;44.726;10.390;2023-09-19T11:59:11;100310.56;;;31.54;100.00
59608;BME280;45426;44.726;10.390;2023-09-19T12:01:38;100305.34;;;31.62;100.00
59608;BME280;45426;44.726;10.390;2023-09-19T12:04:11;100305.00;;;31.84;100.00
59608;BME280;45426;44.726;10.390;2023-09-19T12:06:37;100305.72;;;31.55;100.00
59608;BME280;45426;44.726;10.390;2023-09-19T12:09:12;100299.28;;;31.79;100.00
59608;BME280;45426;44.726;10.390;2023-09-19T12:11:42;100296.88;;;32.01;100.00
59608;BME280;45426;44.726;10.390;2023-09-19T12:14:09;100294.72;;;31.81;100.00
59608;BME280;45426;44.726;10.390;2023-09-19T12:16:35;100288.06;;;31.93;100.00
59608;BME280;45426;44.726;10.390;2023-09-19T12:19:18;100283.97;;;31.65;100.00
59608;BME280;45426;44.726;10.390;2023-09-19T12:22:02;100279.84;;;31.12;100.00
59608;BME280;45426;44.726;10.390;2023-09-19T12:24:32;100278.84;;;31.78;100.00
59608;BME280;45426;44.726;10.390;2023-09-19T12:27:05;100268.38;;;31.79;100.00
59608;BME280;45426;44.726;10.390;2023-09-19T12:29:41;100269.94;;;32.09;100.00
59608;BME280;45426;44.726;10.390;2023-09-19T12:32:07;100282.16;;;32.21;100.00
59608;BME280;45426;44.726;10.390;2023-09-19T12:34:33;100277.88;;;31.66;100.00
59608;BME280;45426;44.726;10.390;2023-09-19T12:37:14;100275.69;;;31.07;100.00
59608;BME280;45426;44.726;10.390;2023-09-19T12:40:04;100273.34;;;31.30;100.00
59608;BME280;45426;44.726;10.390;2023-09-19T12:42:40;100272.63;;;31.20;100.00
59608;BME280;45426;44.726;10.390;2023-09-19T12:45:07;100272.59;;;31.44;100.00
59608;BME280;45426;44.726;10.390;2023-09-19T12:47:34;100263.22;;;31.47;100.00
59608;BME280;45426;44.726;10.390;2023-09-19T12:50:16;100266.84;;;31.92;100.00
59608;BME280;45426;44.726;10.390;2023-09-19T12:52:49;100262.75;;;31.49;100.00
59608;BME280;45426;44.726;10.390;2023-09-19T12:58:08;100263.50;;;31.49;100.00
59608;BME280;45426;44.726;10.390;2023-09-19T13:00:44;100262.09;;;31.69;100.00
59608;BME280;45426;44.726;10.390;2023-09-19T13:05:56;100260.16;;;30.40;100.00
59608;BME280;45426;44.726;10.390;2023-09-19T13:08:34;100256.94;;;30.56;100.00
59608;BME280;45426;44.726;10.390;2023-09-19T13:11:16;100250.84;;;31.15;100.00
59608;BME280;45426;44.726;10.390;2023-09-19T13:13:49;100251.34;;;31.52;100.00
59608;BME280;45426;44.726;10.390;2023-09-19T13:16:19;100251.34;;;31.82;100.00
59608;BME280;45426;44.726;10.390;2023-09-19T13:18:51;100245.06;;;31.72;100.00
59608;BME280;45426;44.726;10.390;2023-09-19T13:21:30;100250.78;;;31.24;100.00
59608;BME280;45426;44.726;10.390;2023-09-19T13:24:22;100250.19;;;31.59;100.00
59608;BME280;45426;44.726;10.390;2023-09-19T13:26:51;100249.59;;;31.70;100.00
59608;BME280;45426;44.726;10.390;2023-09-19T13:29:16;100245.47;;;30.78;100.00
59608;BME280;45426;44.726;10.390;2023-09-19T13:31:52;100241.69;;;31.29;100.00
59608;BME280;45426;44.726;10.390;2023-09-19T13:34:19;100243.31;;;31.75;100.00
59608;BME280;45426;44.726;10.390;2023-09-19T13:36:45;100248.06;;;31.69;100.00
59608;BME280;45426;44.726;10.390;2023-09-19T13:39:13;100253.09;;;31.65;100.00
59608;BME280;45426;44.726;10.390;2023-09-19T13:41:40;100242.63;;;31.50;100.00
59608;BME280;45426;44.726;10.390;2023-09-19T13:44:06;100242.53;;;31.89;100.00
59608;BME280;45426;44.726;10.390;2023-09-19T13:46:31;100240.88;;;31.68;100.00
59608;BME280;45426;44.726;10.390;2023-09-19T13:49:01;100242.84;;;32.06;100.00
59608;BME280;45426;44.726;10.390;2023-09-19T13:51:29;100246.09;;;32.35;100.00
59608;BME280;45426;44.726;10.390;2023-09-19T13:53:55;100236.44;;;31.22;100.00
59608;BME280;45426;44.726;10.390;2023-09-19T13:56:21;100238.28;;;31.25;100.00
59608;BME280;45426;44.726;10.390;2023-09-19T13:58:47;100237.88;;;31.86;100.00
59608;BME280;45426;44.726;10.390;2023-09-19T14:01:12;100242.06;;;31.61;100.00
59608;BME280;45426;44.726;10.390;2023-09-19T14:03:41;100240.63;;;31.42;100.00
59608;BME280;45426;44.726;10.390;2023-09-19T14:06:12;100230.31;;;31.63;100.00
59608;BME280;45426;44.726;10.390;2023-09-19T14:08:37;100233.22;;;31.68;100.00
59608;BME280;45426;44.726;10.390;2023-09-19T14:11:07;100240.16;;;31.43;100.00
59608;BME280;45426;44.726;10.390;2023-09-19T14:13:33;100237.09;;;31.56;100.00
59608;BME280;45426;44.726;10.390;2023-09-19T14:16:03;100240.72;;;30.84;100.00
59608;BME280;45426;44.726;10.390;2023-09-19T14:18:30;100236.94;;;31.21;100.00
59608;BME280;45426;44.726;10.390;2023-09-19T14:20:56;100239.19;;;31.31;100.00
59608;BME280;45426;44.726;10.390;2023-09-19T14:23:21;100235.13;;;31.08;100.00
59608;BME280;45426;44.726;10.390;2023-09-19T14:25:48;100231.44;;;31.41;100.00
59608;BME280;45426;44.726;10.390;2023-09-19T14:28:13;100229.81;;;31.49;100.00
59608;BME280;45426;44.726;10.390;2023-09-19T14:30:39;100225.91;;;31.32;100.00
59608;BME280;45426;44.726;10.390;2023-09-19T14:33:04;100218.81;;;31.61;100.00
59608;BME280;45426;44.726;10.390;2023-09-19T14:35:31;100222.16;;;31.35;100.00
59608;BME280;45426;44.726;10.390;2023-09-19T14:37:56;100224.53;;;31.12;100.00
59608;BME280;45426;44.726;10.390;2023-09-19T14:40:22;100222.97;;;31.11;100.00
59608;BME280;45426;44.726;10.390;2023-09-19T14:42:47;100222.09;;;31.74;100.00
59608;BME280;45426;44.726;10.390;2023-09-19T14:45:13;100230.81;;;32.06;100.00
59608;BME280;45426;44.726;10.390;2023-09-19T14:47:43;100218.31;;;31.62;100.00
59608;BME280;45426;44.726;10.390;2023-09-19T14:50:09;100223.84;;;31.71;100.00
59608;BME280;45426;44.726;10.390;2023-09-19T14:52:35;100225.41;;;31.87;90.59
59608;BME280;45426;44.726;10.390;2023-09-19T14:55:01;100220.56;;;31.73;86.36
59608;BME280;45426;44.726;10.390;2023-09-19T14:57:27;100231.25;;;31.30;82.71
59608;BME280;45426;44.726;10.390;2023-09-19T14:59:53;100230.31;;;31.63;79.82
59608;BME280;45426;44.726;10.390;2023-09-19T15:02:18;100229.78;;;31.34;80.50
59608;BME280;45426;44.726;10.390;2023-09-19T15:04:44;100234.56;;;31.04;83.82
59608;BME280;45426;44.726;10.390;2023-09-19T15:07:12;100236.34;;;31.56;86.85
59608;BME280;45426;44.726;10.390;2023-09-19T15:09:37;100232.59;;;30.95;84.08
59608;BME280;45426;44.726;10.390;2023-09-19T15:12:03;100234.78;;;30.67;84.97
59608;BME280;45426;44.726;10.390;2023-09-19T15:14:29;100244.19;;;30.55;88.37
59608;BME280;45426;44.726;10.390;2023-09-19T15:16:57;100235.13;;;30.84;87.95
59608;BME280;45426;44.726;10.390;2023-09-19T15:19:22;100243.13;;;30.76;87.14
59608;BME280;45426;44.726;10.390;2023-09-19T15:21:48;100240.63;;;30.78;90.93
59608;BME280;45426;44.726;10.390;2023-09-19T15:24:14;100243.91;;;30.77;89.79
59608;BME280;45426;44.726;10.390;2023-09-19T15:26:40;100244.00;;;30.34;90.85
59608;BME280;45426;44.726;10.390;2023-09-19T15:29:08;100244.16;;;30.64;92.63
59608;BME280;45426;44.726;10.390;2023-09-19T15:31:35;100246.06;;;30.15;94.58
59608;BME280;45426;44.726;10.390;2023-09-19T15:34:02;100247.00;;;30.12;94.24
59608;BME280;45426;44.726;10.390;2023-09-19T15:36:28;100248.47;;;30.32;94.01
59608;BME280;45426;44.726;10.390;2023-09-19T15:38:59;100253.69;;;30.06;92.63
59608;BME280;45426;44.726;10.390;2023-09-19T15:41:27;100250.44;;;30.07;94.53
59608;BME280;45426;44.726;10.390;2023-09-19T15:43:54;100243.81;;;30.29;95.66
59608;BME280;45426;44.726;10.390;2023-09-19T15:46:20;100251.38;;;30.13;92.06
59608;BME280;45426;44.726;10.390;2023-09-19T15:48:46;100256.16;;;30.13;92.14
59608;BME280;45426;44.726;10.390;2023-09-19T15:51:12;100241.25;;;30.07;90.28
59608;BME280;45426;44.726;10.390;2023-09-19T15:56:10;100256.06;;;29.98;85.59
59608;BME280;45426;44.726;10.390;2023-09-19T15:58:37;100257.44;;;30.12;86.88
59608;BME280;45426;44.726;10.390;2023-09-19T16:01:08;100262.94;;;30.49;86.56
59608;BME280;45426;44.726;10.390;2023-09-19T16:03:35;100262.19;;;30.30;88.40
59608;BME280;45426;44.726;10.390;2023-09-19T16:06:01;100256.44;;;30.33;85.80
59608;BME280;45426;44.726;10.390;2023-09-19T16:08:27;100259.88;;;30.28;86.32
59608;BME280;45426;44.726;10.390;2023-09-19T16:10:52;100251.75;;;30.30;81.45
59608;BME280;45426;44.726;10.390;2023-09-19T16:13:18;100254.53;;;29.69;84.67
59608;BME280;45426;44.726;10.390;2023-09-19T16:15:43;100258.44;;;29.81;85.78
59608;BME280;45426;44.726;10.390;2023-09-19T16:18:11;100252.41;;;30.25;84.33
59608;BME280;45426;44.726;10.390;2023-09-19T16:20:37;100264.38;;;29.65;82.02
59608;BME280;45426;44.726;10.390;2023-09-19T16:23:04;100262.81;;;29.45;83.36
59608;BME280;45426;44.726;10.390;2023-09-19T16:25:30;100267.16;;;29.65;82.52
59608;BME280;45426;44.726;10.390;2023-09-19T16:27:55;100277.41;;;29.49;83.19
59608;BME280;45426;44.726;10.390;2023-09-19T16:30:21;100269.00;;;29.49;84.48
59608;BME280;45426;44.726;10.390;2023-09-19T16:32:46;100276.34;;;29.47;84.68
59608;BME280;45426;44.726;10.390;2023-09-19T16:35:11;100274.91;;;29.42;86.28
59608;BME280;45426;44.726;10.390;2023-09-19T16:37:38;100274.47;;;29.62;89.85
59608;BME280;45426;44.726;10.390;2023-09-19T16:40:04;100282.41;;;29.36;90.52
59608;BME280;45426;44.726;10.390;2023-09-19T16:42:30;100270.59;;;29.50;93.37
59608;BME280;45426;44.726;10.390;2023-09-19T16:44:56;100277.09;;;29.47;95.91
59608;BME280;45426;44.726;10.390;2023-09-19T16:47:23;100286.44;;;29.16;98.58
59608;BME280;45426;44.726;10.390;2023-09-19T16:49:49;100298.59;;;28.82;100.00
59608;BME280;45426;44.726;10.390;2023-09-19T16:52:14;100299.75;;;29.12;100.00
59608;BME280;45426;44.726;10.390;2023-09-19T16:54:40;100308.44;;;28.96;100.00
59608;BME280;45426;44.726;10.390;2023-09-19T16:57:05;100306.66;;;28.49;100.00
59608;BME280;45426;44.726;10.390;2023-09-19T16:59:30;100304.28;;;28.60;100.00
59608;BME280;45426;44.726;10.390;2023-09-19T17:01:58;100311.00;;;28.40;100.00
59608;BME280;45426;44.726;10.390;2023-09-19T17:04:24;100309.84;;;28.29;100.00
59608;BME280;45426;44.726;10.390;2023-09-19T17:06:49;100310.63;;;28.29;100.00
59608;BME280;45426;44.726;10.390;2023-09-19T17:09:15;100318.56;;;28.31;100.00
59608;BME280;45426;44.726;10.390;2023-09-19T17:11:41;100308.38;;;28.15;100.00
59608;BME280;45426;44.726;10.390;2023-09-19T17:14:06;100315.31;;;28.32;100.00
59608;BME280;45426;44.726;10.390;2023-09-19T17:16:34;100312.94;;;28.53;100.00
59608;BME280;45426;44.726;10.390;2023-09-19T17:19:01;100311.63;;;28.44;100.00
59608;BME280;45426;44.726;10.390;2023-09-19T17:21:27;100317.41;;;28.19;100.00
59608;BME280;45426;44.726;10.390;2023-09-19T17:23:53;100313.16;;;28.36;100.00
59608;BME280;45426;44.726;10.390;2023-09-19T17:26:19;100317.16;;;28.04;100.00
59608;BME280;45426;44.726;10.390;2023-09-19T17:28:48;100317.47;;;28.37;100.00
59608;BME280;45426;44.726;10.390;2023-09-19T17:31:16;100313.19;;;28.45;100.00
59608;BME280;45426;44.726;10.390;2023-09-19T17:33:43;100315.31;;;28.32;100.00
59608;BME280;45426;44.726;10.390;2023-09-19T17:38:36;100317.13;;;28.26;100.00
59608;BME280;45426;44.726;10.390;2023-09-19T17:41:03;100319.66;;;28.11;100.00
59608;BME280;45426;44.726;10.390;2023-09-19T17:43:31;100329.69;;;27.99;100.00
59608;BME280;45426;44.726;10.390;2023-09-19T17:46:14;100331.16;;;27.69;100.00
59608;BME280;45426;44.726;10.390;2023-09-19T17:48:44;100328.88;;;27.42;100.00
59608;BME280;45426;44.726;10.390;2023-09-19T17:51:10;100335.56;;;27.57;100.00
59608;BME280;45426;44.726;10.390;2023-09-19T17:53:37;100331.28;;;27.65;100.00
59608;BME280;45426;44.726;10.390;2023-09-19T17:56:05;100343.00;;;27.60;100.00
59608;BME280;45426;44.726;10.390;2023-09-19T17:58:34;100339.38;;;27.38;100.00
59608;BME280;45426;44.726;10.390;2023-09-19T18:01:12;100340.72;;;27.46;100.00
59608;BME280;45426;44.726;10.390;2023-09-19T18:03:40;100334.28;;;27.23;100.00
59608;BME280;45426;44.726;10.390;2023-09-19T18:06:10;100340.63;;;27.37;100.00
59608;BME280;45426;44.726;10.390;2023-09-19T18:08:36;100334.16;;;27.27;100.00
59608;BME280;45426;44.726;10.390;2023-09-19T18:11:02;100340.22;;;27.13;100.00
59608;BME280;45426;44.726;10.390;2023-09-19T18:13:28;100343.34;;;27.27;100.00
59608;BME280;45426;44.726;10.390;2023-09-19T18:15:54;100342.09;;;27.28;100.00
59608;BME280;45426;44.726;10.390;2023-09-19T18:18:26;100346.44;;;27.29;100.00
59608;BME280;45426;44.726;10.390;2023-09-19T18:20:51;100353.44;;;26.44;100.00
59608;BME280;45426;44.726;10.390;2023-09-19T18:23:17;100356.09;;;26.35;100.00
59608;BME280;45426;44.726;10.390;2023-09-19T18:25:43;100347.81;;;26.61;100.00
59608;BME280;45426;44.726;10.390;2023-09-19T18:28:10;100358.88;;;25.93;100.00
59608;BME280;45426;44.726;10.390;2023-09-19T18:30:36;100355.31;;;26.34;100.00
59608;BME280;45426;44.726;10.390;2023-09-19T18:33:02;100356.19;;;26.19;100.00
59608;BME280;45426;44.726;10.390;2023-09-19T18:35:27;100368.44;;;26.76;100.00
59608;BME280;45426;44.726;10.390;2023-09-19T18:37:55;100370.34;;;26.37;100.00
59608;BME280;45426;44.726;10.390;2023-09-19T18:40:24;100367.81;;;25.55;100.00
59608;BME280;45426;44.726;10.390;2023-09-19T18:42:49;100370.53;;;25.88;100.00
59608;BME280;45426;44.726;10.390;2023-09-19T18:45:15;100377.03;;;25.98;100.00
59608;BME280;45426;44.726;10.390;2023-09-19T18:47:40;100362.91;;;25.75;100.00
59608;BME280;45426;44.726;10.390;2023-09-19T18:50:07;100373.66;;;25.90;100.00
59608;BME280;45426;44.726;10.390;2023-09-19T18:52:36;100378.22;;;25.67;100.00
59608;BME280;45426;44.726;10.390;2023-09-19T18:55:10;100383.41;;;25.82;100.00
59608;BME280;45426;44.726;10.390;2023-09-19T18:57:39;100387.59;;;25.73;100.00
59608;BME280;45426;44.726;10.390;2023-09-19T19:00:05;100390.75;;;25.59;100.00
59608;BME280;45426;44.726;10.390;2023-09-19T19:02:32;100398.41;;;25.55;100.00
59608;BME280;45426;44.726;10.390;2023-09-19T19:04:57;100397.53;;;25.42;100.00
59608;BME280;45426;44.726;10.390;2023-09-19T19:07:24;100397.91;;;25.27;100.00
59608;BME280;45426;44.726;10.390;2023-09-19T19:09:49;100405.34;;;25.14;100.00
59608;BME280;45426;44.726;10.390;2023-09-19T19:12:15;100407.03;;;25.61;100.00
59608;BME280;45426;44.726;10.390;2023-09-19T19:14:40;100403.91;;;25.42;100.00
59608;BME280;45426;44.726;10.390;2023-09-19T19:17:09;100406.59;;;25.29;100.00
59608;BME280;45426;44.726;10.390;2023-09-19T19:19:37;100406.38;;;25.20;100.00
59608;BME280;45426;44.726;10.390;2023-09-19T19:22:02;100413.16;;;25.19;100.00
59608;BME280;45426;44.726;10.390;2023-09-19T19:24:28;100418.72;;;25.03;100.00
59608;BME280;45426;44.726;10.390;2023-09-19T19:26:54;100421.88;;;24.85;100.00
59608;BME280;45426;44.726;10.390;2023-09-19T19:29:20;100433.03;;;25.01;100.00
59608;BME280;45426;44.726;10.390;2023-09-19T19:31:46;100421.13;;;25.17;100.00
59608;BME280;45426;44.726;10.390;2023-09-19T19:34:11;100426.03;;;24.76;100.00
59608;BME280;45426;44.726;10.390;2023-09-19T19:36:37;100421.75;;;24.52;100.00
59608;BME280;45426;44.726;10.390;2023-09-19T19:39:03;100423.31;;;24.73;100.00
59608;BME280;45426;44.726;10.390;2023-09-19T19:41:30;100433.34;;;24.67;100.00
59608;BME280;45426;44.726;10.390;2023-09-19T19:43:56;100431.13;;;24.78;100.00
59608;BME280;45426;44.726;10.390;2023-09-19T19:46:22;100431.41;;;24.84;100.00
59608;BME280;45426;44.726;10.390;2023-09-19T19:48:49;100431.72;;;24.49;100.00
59608;BME280;45426;44.726;10.390;2023-09-19T19:51:16;100435.91;;;24.17;100.00
59608;BME280;45426;44.726;10.390;2023-09-19T19:53:42;100433.78;;;24.45;100.00
59608;BME280;45426;44.726;10.390;2023-09-19T19:56:07;100435.56;;;24.55;100.00
59608;BME280;45426;44.726;10.390;2023-09-19T19:58:34;100445.06;;;24.58;100.00
59608;BME280;45426;44.726;10.390;2023-09-19T20:01:00;100438.19;;;24.83;100.00
59608;BME280;45426;44.726;10.390;2023-09-19T20:03:26;100446.34;;;24.53;100.00
59608;BME280;45426;44.726;10.390;2023-09-19T20:05:52;100454.81;;;24.66;100.00
59608;BME280;45426;44.726;10.390;2023-09-19T20:08:18;100445.88;;;24.35;100.00
59608;BME280;45426;44.726;10.390;2023-09-19T20:10:43;100449.31;;;24.63;100.00
59608;BME280;45426;44.726;10.390;2023-09-19T20:13:09;100445.81;;;24.38;100.00
59608;BME280;45426;44.726;10.390;2023-09-19T20:15:37;100448.47;;;24.66;100.00
59608;BME280;45426;44.726;10.390;2023-09-19T20:18:06;100454.59;;;24.77;100.00
59608;BME280;45426;44.726;10.390;2023-09-19T20:20:37;100446.22;;;24.97;100.00
59608;BME280;45426;44.726;10.390;2023-09-19T20:23:04;100455.00;;;24.55;100.00
59608;BME280;45426;44.726;10.390;2023-09-19T20:25:33;100454.50;;;24.20;100.00
59608;BME280;45426;44.726;10.390;2023-09-19T20:27:59;100456.25;;;24.31;100.00
59608;BME280;45426;44.726;10.390;2023-09-19T20:30:25;100455.00;;;24.55;100.00
59608;BME280;45426;44.726;10.390;2023-09-19T20:32:50;100456.81;;;24.02;100.00
59608;BME280;45426;44.726;10.390;2023-09-19T20:35:16;100462.81;;;23.73;100.00
59608;BME280;45426;44.726;10.390;2023-09-19T20:37:41;100469.91;;;24.21;100.00
59608;BME280;45426;44.726;10.390;2023-09-19T20:40:07;100458.38;;;23.79;100.00
59608;BME280;45426;44.726;10.390;2023-09-19T20:42:38;100462.00;;;24.00;100.00
59608;BME280;45426;44.726;10.390;2023-09-19T20:45:07;100457.25;;;24.40;100.00
59608;BME280;45426;44.726;10.390;2023-09-19T20:47:41;100461.38;;;24.12;100.00
59608;BME280;45426;44.726;10.390;2023-09-19T20:50:08;100463.56;;;23.77;100.00
59608;BME280;45426;44.726;10.390;2023-09-19T20:52:35;100462.25;;;23.86;100.00
59608;BME280;45426;44.726;10.390;2023-09-19T20:55:01;100465.81;;;23.59;100.00
59608;BME280;45426;44.726;10.390;2023-09-19T20:57:28;100473.41;;;24.06;100.00
59608;BME280;45426;44.726;10.390;2023-09-19T20:59:54;100476.81;;;23.39;100.00
59608;BME280;45426;44.726;10.390;2023-09-19T21:02:20;100467.00;;;23.34;100.00
59608;BME280;45426;44.726;10.390;2023-09-19T21:04:45;100470.31;;;22.91;100.00
59608;BME280;45426;44.726;10.390;2023-09-19T21:07:11;100474.47;;;22.76;100.00
59608;BME280;45426;44.726;10.390;2023-09-19T21:09:36;100475.41;;;22.65;100.00
59608;BME280;45426;44.726;10.390;2023-09-19T21:12:05;100477.19;;;23.14;100.00
59608;BME280;45426;44.726;10.390;2023-09-19T21:14:31;100479.34;;;22.99;100.00